Time;durP1;ratioP1;P1;durP2;ratioP2;P2;SDS_P1;SDS_P2;PMS_P1;PMS_P2;Temp;Humidity;BMP_temperature;BMP_pressure;BME280_temperature;BME280_humidity;BME280_pressure;Samples;Min_cycle;Max_cycle;Signal;HPM_P1;HPM_P2
2022/03/26 03:48:04;;;;;;;83.63;52.20;;;6.60;99.90;;;;;;5068177;23;20566;-94
2022/03/26 03:56:05;;;;;;;81.40;49.67;;;6.60;99.90;;;;;;4953334;28;20431;-93
2022/03/26 04:03:17;;;;;;;81.03;46.70;;;6.50;99.90;;;;;;5034491;23;21051;-91
2022/03/26 04:06:06;;;;;;;83.50;51.53;;;6.50;99.90;;;;;;4932558;29;20448;-93
2022/03/26 04:08:58;;;;;;;79.50;48.87;;;6.50;99.90;;;;;;4939429;29;20478;-90
2022/03/26 04:11:52;;;;;;;80.20;49.33;;;6.50;99.90;;;;;;4933675;29;20562;-92
2022/03/26 04:15:29;;;;;;;80.83;49.30;;;6.50;99.90;;;;;;4931324;29;20447;-90
2022/03/26 04:18:53;;;;;;;81.60;52.33;;;6.40;99.90;;;;;;4934210;29;20490;-90
2022/03/26 04:21:59;;;;;;;85.23;50.33;;;6.50;99.90;;;;;;4928414;29;20569;-92
2022/03/26 04:25:04;;;;;;;80.60;51.03;;;6.50;99.90;;;;;;4934751;29;20456;-90
2022/03/26 04:27:54;;;;;;;82.63;51.70;;;6.50;99.90;;;;;;4928805;29;20548;-91
2022/03/26 04:30:43;;;;;;;92.40;51.33;;;6.50;99.90;;;;;;4933987;29;20490;-90
2022/03/26 04:33:31;;;;;;;88.97;52.80;;;6.50;99.90;;;;;;4933188;29;20607;-93
2022/03/26 04:36:20;;;;;;;90.43;50.80;;;6.50;99.90;;;;;;4932190;29;20476;-92
2022/03/26 04:39:09;;;;;;;87.30;52.97;;;6.50;99.90;;;;;;4932198;29;20485;-92
2022/03/26 04:41:58;;;;;;;83.77;53.03;;;6.50;99.90;;;;;;4930056;29;20624;-92
2022/03/26 04:44:48;;;;;;;87.93;52.10;;;6.50;99.90;;;;;;4929515;29;20495;-93
2022/03/26 04:47:36;;;;;;;84.20;53.20;;;6.50;99.90;;;;;;4932534;29;20483;-91
2022/03/26 04:50:25;;;;;;;86.50;53.57;;;6.50;99.90;;;;;;4928541;29;20475;-92
2022/03/26 04:53:14;;;;;;;91.87;53.47;;;6.50;99.90;;;;;;4932694;29;20541;-92
2022/03/26 04:56:02;;;;;;;92.60;54.60;;;6.40;99.90;;;;;;4930143;29;21071;-91
2022/03/26 04:58:53;;;;;;;90.53;53.70;;;6.40;99.90;;;;;;4930827;29;20488;-90
2022/03/26 05:01:44;;;;;;;84.10;52.90;;;6.40;99.90;;;;;;4926562;29;21002;-91
2022/03/26 05:04:33;;;;;;;90.43;55.20;;;6.40;99.90;;;;;;4927388;29;20444;-92
2022/03/26 05:10:30;;;;;;;83.80;51.30;;;6.40;99.90;;;;;;4929644;29;20468;-92
2022/03/26 05:13:18;;;;;;;85.97;53.97;;;6.30;99.90;;;;;;4932365;29;20477;-91
2022/03/26 05:16:07;;;;;;;88.47;51.90;;;6.30;99.90;;;;;;4931926;29;20448;-91
2022/03/26 05:18:57;;;;;;;86.30;53.60;;;6.20;99.90;;;;;;4933224;29;20503;-92
2022/03/26 05:21:46;;;;;;;94.80;54.50;;;6.20;99.90;;;;;;4931076;29;20550;-91
2022/03/26 05:24:34;;;;;;;92.67;54.97;;;6.20;99.90;;;;;;4935315;29;20506;-91
2022/03/26 05:27:23;;;;;;;90.93;55.43;;;6.20;99.90;;;;;;4935075;29;20488;-91
2022/03/26 05:30:12;;;;;;;88.40;53.67;;;6.20;99.90;;;;;;4930364;29;20488;-91
2022/03/26 05:33:00;;;;;;;91.07;53.87;;;6.20;99.90;;;;;;4933338;29;20476;-92
2022/03/26 05:35:51;;;;;;;92.83;55.57;;;6.20;99.90;;;;;;4937410;29;20460;-92
2022/03/26 05:38:39;;;;;;;100.07;58.30;;;6.20;99.90;;;;;;4935513;29;20519;-91
2022/03/26 05:41:28;;;;;;;96.43;56.97;;;6.20;99.90;;;;;;4933967;29;20486;-90
2022/03/26 05:44:16;;;;;;;102.13;56.07;;;6.20;99.90;;;;;;4936354;29;20465;-91
2022/03/26 05:47:06;;;;;;;93.67;59.57;;;6.20;99.90;;;;;;4940892;29;21035;-92
2022/03/26 05:49:55;;;;;;;103.03;56.13;;;6.20;99.90;;;;;;4932437;29;20506;-92
2022/03/26 05:52:45;;;;;;;104.73;59.67;;;6.30;99.90;;;;;;4948176;29;20503;-92
2022/03/26 05:55:33;;;;;;;101.30;58.70;;;6.30;99.90;;;;;;4932921;29;20950;-92
2022/03/26 05:58:22;;;;;;;104.10;59.37;;;6.40;99.90;;;;;;4937117;29;20452;-92
2022/03/26 06:01:10;;;;;;;105.80;61.60;;;6.30;99.90;;;;;;4938676;29;20460;-93
2022/03/26 06:03:59;;;;;;;104.40;59.87;;;6.30;99.90;;;;;;4930403;29;20551;-92
2022/03/26 06:06:48;;;;;;;100.90;58.30;;;6.40;99.90;;;;;;4934711;29;20531;-92
2022/03/26 06:09:39;;;;;;;111.63;59.10;;;6.40;99.90;;;;;;4932864;29;20810;-93
2022/03/26 06:12:27;;;;;;;111.13;60.17;;;6.50;99.90;;;;;;4930409;29;20482;-91
2022/03/26 06:15:16;;;;;;;103.17;61.93;;;6.50;99.90;;;;;;4934971;28;20886;-93
2022/03/26 06:18:25;;;;;;;104.43;60.77;;;6.50;99.90;;;;;;4933534;29;20801;-91
2022/03/26 06:21:14;;;;;;;102.23;59.20;;;6.60;99.90;;;;;;4926574;29;21058;-91
2022/03/26 06:24:04;;;;;;;98.37;57.33;;;6.60;99.90;;;;;;4931510;29;20804;-90
2022/03/26 06:26:55;;;;;;;104.83;58.30;;;6.60;99.90;;;;;;4936473;29;20551;-94
2022/03/26 06:29:43;;;;;;;101.13;60.27;;;6.70;99.90;;;;;;4930291;29;20453;-91
2022/03/26 06:32:32;;;;;;;101.40;58.70;;;6.80;99.90;;;;;;4930353;29;20479;-92
2022/03/26 06:35:24;;;;;;;101.03;58.80;;;6.80;99.90;;;;;;4934790;29;20472;-94
2022/03/26 06:38:14;;;;;;;95.57;57.83;;;6.90;99.90;;;;;;4932708;29;20576;-92
2022/03/26 06:41:03;;;;;;;101.57;57.20;;;7.00;99.90;;;;;;4928202;29;21076;-91
2022/03/26 06:44:00;;;;;;;94.60;58.33;;;7.30;99.90;;;;;;4928327;29;20482;-91
2022/03/26 06:46:48;;;;;;;91.80;55.40;;;7.60;99.90;;;;;;4925132;29;20483;-91
2022/03/26 06:49:37;;;;;;;84.30;53.73;;;7.80;99.90;;;;;;4933775;29;20483;-94
2022/03/26 06:52:26;;;;;;;83.63;53.50;;;7.90;99.90;;;;;;4929694;29;20520;-90
2022/03/26 06:55:17;;;;;;;87.20;53.47;;;7.90;99.90;;;;;;4932798;29;20452;-92
2022/03/26 06:58:05;;;;;;;87.23;52.60;;;7.90;99.90;;;;;;4926845;29;20558;-92
2022/03/26 07:01:05;;;;;;;88.43;52.83;;;7.80;99.90;;;;;;4929668;29;20524;-91
2022/03/26 07:04:34;;;;;;;80.90;51.87;;;7.80;99.90;;;;;;4934626;29;20460;-92
2022/03/26 07:10:45;;;;;;;76.53;50.60;;;7.80;99.90;;;;;;4933200;29;20485;-91
2022/03/26 07:13:40;;;;;;;75.50;48.33;;;7.90;99.90;;;;;;4930584;29;20576;-90
2022/03/26 07:16:33;;;;;;;71.37;48.80;;;8.00;99.90;;;;;;4926893;29;20487;-90
2022/03/26 07:19:44;;;;;;;81.70;48.40;;;8.00;99.90;;;;;;4939169;29;20471;-91
2022/03/26 07:22:45;;;;;;;67.77;45.67;;;8.10;99.90;;;;;;4928165;29;20476;-91
2022/03/26 07:25:43;;;;;;;69.83;44.57;;;8.30;99.90;;;;;;4933053;29;20457;-90
2022/03/26 07:28:37;;;;;;;57.93;41.27;;;8.30;99.90;;;;;;4935775;29;20455;-91
2022/03/26 07:31:25;;;;;;;64.83;45.50;;;8.50;99.90;;;;;;4929629;29;20478;-90
2022/03/26 07:34:16;;;;;;;66.00;43.87;;;8.50;99.90;;;;;;4931434;29;20460;-89
2022/03/26 07:37:05;;;;;;;62.23;41.80;;;8.60;99.90;;;;;;4929445;29;20463;-89
2022/03/26 07:39:53;;;;;;;63.63;41.73;;;8.70;99.90;;;;;;4933491;29;20464;-90
2022/03/26 07:42:42;;;;;;;55.37;38.70;;;8.80;99.90;;;;;;4934604;29;20472;-90
2022/03/26 07:45:30;;;;;;;62.37;41.13;;;8.80;99.90;;;;;;4933566;28;20542;-93
2022/03/26 07:48:18;;;;;;;55.30;38.03;;;8.90;99.90;;;;;;4949201;28;20576;-91
2022/03/26 07:51:08;;;;;;;55.17;39.57;;;9.00;99.90;;;;;;4959161;28;20474;-92
2022/03/26 07:53:56;;;;;;;52.40;36.90;;;9.20;99.90;;;;;;4951131;28;20444;-92
2022/03/26 07:56:45;;;;;;;54.53;36.20;;;9.30;99.90;;;;;;4948874;28;20444;-94
2022/03/26 07:59:34;;;;;;;53.07;36.73;;;9.40;99.90;;;;;;4947856;28;20895;-92
2022/03/26 08:02:23;;;;;;;50.37;34.90;;;9.50;99.90;;;;;;4935075;29;20552;-91
2022/03/26 08:05:11;;;;;;;48.10;34.63;;;9.60;99.90;;;;;;4941526;29;20511;-90
2022/03/26 08:08:01;;;;;;;45.23;34.43;;;9.70;99.90;;;;;;4937500;29;20639;-89
2022/03/26 08:10:50;;;;;;;49.83;34.13;;;9.80;99.90;;;;;;4936299;29;20484;-89
2022/03/26 08:13:38;;;;;;;42.13;32.60;;;9.80;99.90;;;;;;4939464;29;20497;-92
2022/03/26 08:16:29;;;;;;;47.03;33.50;;;9.90;99.90;;;;;;4941939;29;20455;-92
2022/03/26 08:19:19;;;;;;;47.43;31.60;;;10.00;99.90;;;;;;4936139;28;20449;-89
2022/03/26 08:22:10;;;;;;;40.90;30.83;;;10.10;99.90;;;;;;4928760;29;20583;-91
2022/03/26 08:25:01;;;;;;;38.00;28.40;;;10.20;99.90;;;;;;4929109;29;20452;-94
2022/03/26 08:27:49;;;;;;;40.10;28.50;;;10.30;99.90;;;;;;4935815;29;20555;-91
2022/03/26 08:30:38;;;;;;;40.50;27.60;;;10.40;99.90;;;;;;4936159;29;20452;-92
2022/03/26 08:33:27;;;;;;;34.07;26.00;;;10.60;99.90;;;;;;4935295;29;20462;-92
2022/03/26 08:36:17;;;;;;;32.20;25.50;;;10.60;99.90;;;;;;4932226;29;20491;-90
2022/03/26 08:39:07;;;;;;;28.43;21.47;;;10.70;99.90;;;;;;4932407;29;20456;-94
2022/03/26 08:41:58;;;;;;;24.63;19.80;;;10.80;99.90;;;;;;4935653;29;20614;-92
2022/03/26 08:44:48;;;;;;;28.00;22.07;;;10.80;99.90;;;;;;4933692;29;20524;-92
2022/03/26 08:47:40;;;;;;;28.10;22.00;;;10.90;99.90;;;;;;4946231;29;20519;-93
2022/03/26 08:50:30;;;;;;;25.53;20.60;;;11.00;99.90;;;;;;4937177;29;20463;-93
2022/03/26 08:53:19;;;;;;;29.27;23.60;;;11.10;99.90;;;;;;4936541;29;20578;-91
2022/03/26 08:56:08;;;;;;;31.70;22.60;;;11.10;99.90;;;;;;4935220;29;20452;-92
2022/03/26 08:58:58;;;;;;;29.60;21.93;;;11.10;99.90;;;;;;4936760;29;20460;-93
2022/03/26 09:05:53;;;;;;;28.80;22.10;;;11.30;99.90;;;;;;4939795;29;20453;-95
2022/03/26 09:08:58;;;;;;;29.27;21.23;;;11.50;99.90;;;;;;4941640;29;20463;-93
2022/03/26 09:12:21;;;;;;;25.97;20.60;;;11.50;99.90;;;;;;4933762;29;20865;-91
2022/03/26 09:15:12;;;;;;;25.37;20.73;;;11.60;99.90;;;;;;4933152;29;20630;-92
2022/03/26 09:18:00;;;;;;;25.80;20.10;;;11.70;99.90;;;;;;4934087;29;20468;-91
2022/03/26 09:20:49;;;;;;;24.23;18.23;;;11.70;99.90;;;;;;4934583;29;20610;-93
2022/03/26 09:23:37;;;;;;;20.97;17.87;;;11.80;99.90;;;;;;4931761;29;20445;-94
2022/03/26 09:26:27;;;;;;;22.37;16.53;;;11.80;99.90;;;;;;4936928;29;20460;-91
2022/03/26 09:29:17;;;;;;;20.63;15.93;;;11.90;99.90;;;;;;4933694;29;20474;-92
2022/03/26 09:32:08;;;;;;;22.43;16.00;;;12.00;99.90;;;;;;4953998;23;20499;-90
2022/03/26 09:35:01;;;;;;;20.00;15.73;;;12.00;99.90;;;;;;4936465;28;20512;-93
2022/03/26 09:37:55;;;;;;;22.70;16.10;;;12.00;99.90;;;;;;4953573;29;20487;-93
2022/03/26 09:41:02;;;;;;;19.47;15.80;;;12.00;99.90;;;;;;4941201;29;20479;-91
2022/03/26 09:44:02;;;;;;;21.80;16.50;;;12.10;99.90;;;;;;4934045;29;20566;-91
2022/03/26 09:47:08;;;;;;;18.97;14.97;;;12.10;99.90;;;;;;4929296;29;21588;-90
2022/03/26 09:53:53;;;;;;;19.50;15.73;;;12.30;99.90;;;;;;4892144;29;20532;-90
2022/03/26 09:56:42;;;;;;;17.57;14.03;;;12.40;99.90;;;;;;4897600;29;20514;-91
2022/03/26 09:59:32;;;;;;;15.30;13.07;;;12.40;99.90;;;;;;4922028;29;20487;-90
2022/03/26 10:02:20;;;;;;;15.63;13.07;;;12.60;99.90;;;;;;4941367;23;20539;-68
2022/03/26 10:05:12;;;;;;;15.77;13.67;;;12.70;99.90;;;;;;4923670;29;20468;-67
2022/03/26 10:08:15;;;;;;;18.50;13.60;;;12.90;99.90;;;;;;4908090;29;20483;-68
2022/03/26 10:11:04;;;;;;;16.33;13.03;;;12.90;99.90;;;;;;4917912;29;20500;-68
2022/03/26 10:13:55;;;;;;;15.83;12.87;;;12.90;99.90;;;;;;4927465;29;20559;-68
2022/03/26 10:16:51;;;;;;;15.20;13.60;;;12.80;99.90;;;;;;4970785;23;20964;-68
2022/03/26 10:19:42;;;;;;;14.30;12.00;;;12.90;99.90;;;;;;4968643;28;20458;-67
2022/03/26 10:22:34;;;;;;;12.60;11.30;;;12.80;99.90;;;;;;4977386;28;20450;-68
2022/03/26 10:25:24;;;;;;;16.47;12.37;;;12.80;99.90;;;;;;4967141;28;20478;-68
2022/03/26 10:28:24;;;;;;;18.07;13.70;;;12.80;99.90;;;;;;4950595;28;20986;-68
2022/03/26 10:34:23;;;;;;;14.93;13.33;;;12.80;99.90;;;;;;4963352;28;20462;-67
2022/03/26 10:37:11;;;;;;;14.70;13.10;;;12.70;99.90;;;;;;4953420;28;20503;-68
2022/03/26 10:40:16;;;;;;;15.57;13.87;;;12.80;99.90;;;;;;4961522;28;21023;-67
2022/03/26 10:43:10;;;;;;;17.00;12.87;;;12.90;99.90;;;;;;4965732;28;20451;-68
2022/03/26 10:45:59;;;;;;;13.23;11.83;;;12.90;99.90;;;;;;4953012;28;20848;-67
2022/03/26 10:49:01;;;;;;;13.23;11.83;;;12.90;99.90;;;;;;4961168;28;20467;-67
2022/03/26 10:51:49;;;;;;;16.30;12.47;;;12.90;99.90;;;;;;4959232;28;20850;-67
2022/03/26 10:54:37;;;;;;;12.33;11.03;;;12.90;99.90;;;;;;4961204;28;20446;-68
2022/03/26 10:57:27;;;;;;;14.90;12.73;;;12.90;99.90;;;;;;4957338;28;20553;-69
2022/03/26 11:00:18;;;;;;;14.67;12.90;;;12.90;99.90;;;;;;4951664;28;21918;-71
2022/03/26 11:03:06;;;;;;;13.57;11.70;;;13.00;99.90;;;;;;4947377;28;20491;-68
2022/03/26 11:05:56;;;;;;;14.57;12.10;;;13.00;99.90;;;;;;4952298;28;20477;-68
2022/03/26 11:08:48;;;;;;;13.03;11.70;;;13.00;99.90;;;;;;4948936;28;20553;-68
2022/03/26 11:11:37;;;;;;;13.30;11.70;;;13.00;99.90;;;;;;4958740;28;20526;-68
2022/03/26 11:14:33;;;;;;;14.23;11.77;;;12.90;99.90;;;;;;4959872;28;20569;-68
2022/03/26 11:17:33;;;;;;;16.50;12.40;;;13.00;99.90;;;;;;4960193;28;20470;-69
2022/03/26 11:20:34;;;;;;;14.50;12.70;;;13.10;99.90;;;;;;4954491;28;20969;-69
2022/03/26 11:23:34;;;;;;;14.00;12.50;;;13.10;99.90;;;;;;4954824;28;20461;-69
2022/03/26 11:26:33;;;;;;;13.50;11.90;;;13.30;99.90;;;;;;4953746;28;20466;-69
2022/03/26 11:29:44;;;;;;;18.80;12.80;;;13.30;99.90;;;;;;4958216;28;20654;-67
2022/03/26 11:32:37;;;;;;;15.33;13.00;;;13.30;99.90;;;;;;4957988;28;20482;-67
2022/03/26 11:35:25;;;;;;;14.07;12.47;;;13.30;99.90;;;;;;4962356;28;20482;-67
2022/03/26 11:38:13;;;;;;;14.00;12.10;;;13.30;99.90;;;;;;4958316;28;20550;-67
2022/03/26 11:41:03;;;;;;;14.87;13.30;;;13.30;99.90;;;;;;4957392;28;20950;-67
2022/03/26 11:43:58;;;;;;;17.37;12.90;;;13.30;99.90;;;;;;4961023;28;21025;-68
2022/03/26 11:53:08;;;;;;;13.90;12.50;;;13.50;99.90;;;;;;4955814;28;21587;-67
2022/03/26 11:55:56;;;;;;;12.57;11.37;;;13.50;99.90;;;;;;4958069;28;20533;-68
2022/03/26 11:58:45;;;;;;;15.87;13.33;;;13.60;99.90;;;;;;4955062;28;20589;-68
2022/03/26 12:01:38;;;;;;;14.53;12.50;;;13.70;99.90;;;;;;4942994;28;20974;-68
2022/03/26 12:04:29;;;;;;;13.00;11.60;;;13.70;99.90;;;;;;4946149;28;20481;-68
2022/03/26 12:07:18;;;;;;;13.40;11.30;;;13.60;99.90;;;;;;4953840;28;20589;-68
2022/03/26 12:10:11;;;;;;;12.73;11.37;;;13.50;99.90;;;;;;4960420;28;20481;-68
2022/03/26 12:13:03;;;;;;;14.53;11.73;;;13.50;99.90;;;;;;4948936;28;20493;-71
2022/03/26 12:16:02;;;;;;;13.70;11.57;;;13.60;99.90;;;;;;4943835;28;20633;-67
2022/03/26 12:18:51;;;;;;;13.70;11.97;;;13.60;99.90;;;;;;4944849;28;20573;-68
2022/03/26 12:21:50;;;;;;;13.67;11.50;;;13.60;99.90;;;;;;4949618;28;20585;-68
2022/03/26 12:24:39;;;;;;;14.33;11.90;;;13.60;99.90;;;;;;4944766;28;20470;-68
2022/03/26 12:27:28;;;;;;;12.97;11.63;;;13.60;99.90;;;;;;4943573;28;20551;-68
2022/03/26 12:30:17;;;;;;;13.07;11.77;;;13.60;99.90;;;;;;4957054;28;20462;-68
2022/03/26 12:33:09;;;;;;;13.43;11.03;;;13.60;99.90;;;;;;4954572;28;20498;-68
2022/03/26 12:35:57;;;;;;;12.57;11.10;;;13.70;99.90;;;;;;4954984;28;20478;-68
2022/03/26 12:38:47;;;;;;;12.30;10.70;;;14.10;99.90;;;;;;4957033;28;20518;-68
2022/03/26 12:41:36;;;;;;;12.30;10.43;;;14.30;99.90;;;;;;4957704;28;20993;-68
2022/03/26 12:44:25;;;;;;;10.13;9.10;;;14.40;99.90;;;;;;4955003;28;20977;-67
2022/03/26 12:47:16;;;;;;;10.47;8.80;;;14.60;99.90;;;;;;4956637;28;20564;-67
2022/03/26 12:50:06;;;;;;;10.87;9.80;;;14.60;99.90;;;;;;4953771;28;20606;-68
2022/03/26 12:52:54;;;;;;;9.90;8.90;;;14.70;99.90;;;;;;4952068;28;20900;-69
2022/03/26 12:55:44;;;;;;;8.60;7.73;;;14.90;99.90;;;;;;4956730;28;20470;-69
2022/03/26 13:01:42;;;;;;;9.13;8.23;;;15.50;99.90;;;;;;4950439;28;20446;-69
2022/03/26 13:04:37;;;;;;;11.10;9.87;;;15.60;99.90;;;;;;4953712;28;20752;-68
2022/03/26 13:07:25;;;;;;;11.93;8.80;;;15.90;99.90;;;;;;4958549;28;20942;-69
2022/03/26 13:10:13;;;;;;;8.93;8.07;;;16.70;99.90;;;;;;4962110;28;20553;-69
2022/03/26 13:13:02;;;;;;;9.33;8.53;;;16.70;99.90;;;;;;4949657;28;20616;-69
2022/03/26 13:16:13;;;;;;;10.07;8.70;;;16.40;99.90;;;;;;4947574;28;20505;-69
2022/03/26 13:19:04;;;;;;;9.23;8.33;;;15.70;99.90;;;;;;4955710;28;20470;-67
2022/03/26 13:21:52;;;;;;;9.63;8.70;;;15.30;99.90;;;;;;4954717;28;20470;-67
2022/03/26 13:24:50;;;;;;;9.20;8.30;;;15.10;99.90;;;;;;4954010;28;20465;-69
2022/03/26 13:27:38;;;;;;;9.53;8.40;;;15.00;99.90;;;;;;4948866;28;20454;-67
2022/03/26 13:30:26;;;;;;;8.63;7.10;;;14.80;99.90;;;;;;4951577;28;20461;-68
2022/03/26 13:33:22;;;;;;;9.50;7.57;;;14.70;99.90;;;;;;4950805;28;20458;-67
2022/03/26 13:36:13;;;;;;;7.90;7.17;;;14.80;99.90;;;;;;4950100;28;20497;-69
2022/03/26 13:39:17;;;;;;;7.43;6.73;;;16.10;99.90;;;;;;4954093;28;20596;-69
2022/03/26 13:42:11;;;;;;;6.83;6.13;;;16.10;99.90;;;;;;4948706;28;20467;-68
2022/03/26 13:44:59;;;;;;;7.97;6.20;;;15.80;99.90;;;;;;4946379;28;20462;-66
2022/03/26 13:47:56;;;;;;;7.03;6.43;;;15.40;99.90;;;;;;4947592;28;20449;-68
2022/03/26 13:50:45;;;;;;;7.93;6.37;;;15.20;99.90;;;;;;4951430;28;20562;-69
2022/03/26 13:53:50;;;;;;;10.27;6.60;;;15.00;99.90;;;;;;4952213;28;20482;-72
2022/03/26 13:56:38;;;;;;;6.73;5.70;;;15.00;99.90;;;;;;4946837;28;20470;-68
2022/03/26 13:59:27;;;;;;;7.57;6.43;;;15.10;99.90;;;;;;4950964;28;20954;-69
2022/03/26 14:02:15;;;;;;;7.20;6.50;;;15.30;99.90;;;;;;4952116;28;20446;-70
2022/03/26 14:05:16;;;;;;;6.27;5.70;;;15.80;99.90;;;;;;4953167;28;20470;-68
2022/03/26 14:08:11;;;;;;;7.20;6.33;;;16.30;99.90;;;;;;4946207;28;21010;-69
2022/03/26 14:10:59;;;;;;;5.67;5.13;;;16.30;99.90;;;;;;4944088;28;20490;-70
2022/03/26 14:13:49;;;;;;;8.63;5.47;;;16.40;99.90;;;;;;4946682;28;23733;-74
2022/03/26 14:16:38;;;;;;;7.03;5.20;;;16.40;99.90;;;;;;4943493;28;20474;-74
2022/03/26 14:19:26;;;;;;;6.73;5.50;;;16.20;99.90;;;;;;4954217;28;20512;-73
2022/03/26 14:22:14;;;;;;;5.67;5.17;;;16.00;99.90;;;;;;4950533;28;20470;-73
2022/03/26 14:25:05;;;;;;;5.50;5.00;;;15.80;99.90;;;;;;4951335;28;20469;-77
2022/03/26 14:27:53;;;;;;;9.10;5.53;;;15.70;99.90;;;;;;4948577;28;20973;-75
2022/03/26 14:30:42;;;;;;;5.67;5.17;;;15.40;99.90;;;;;;4954980;28;20469;-76
2022/03/26 14:33:32;;;;;;;5.70;5.13;;;15.30;99.90;;;;;;4954074;28;20451;-74
2022/03/26 14:36:21;;;;;;;6.30;5.23;;;15.30;99.90;;;;;;4959358;28;20554;-73
2022/03/26 14:39:09;;;;;;;6.33;4.90;;;15.00;99.90;;;;;;4959264;28;20468;-73
2022/03/26 14:41:59;;;;;;;8.20;5.50;;;14.80;99.90;;;;;;4955368;28;20466;-71
2022/03/26 14:44:48;;;;;;;5.60;5.10;;;14.80;99.90;;;;;;4948905;28;20458;-75
2022/03/26 14:47:37;;;;;;;5.90;5.33;;;14.70;99.90;;;;;;4947930;28;20455;-74
2022/03/26 14:50:26;;;;;;;6.10;5.27;;;14.70;99.90;;;;;;4945821;28;20473;-69
2022/03/26 14:53:14;;;;;;;5.83;5.20;;;14.70;99.90;;;;;;4948845;28;20470;-68
2022/03/26 14:56:04;;;;;;;5.20;4.70;;;14.50;99.90;;;;;;4952819;28;20585;-68
2022/03/26 14:58:53;;;;;;;6.40;4.87;;;14.20;99.90;;;;;;4961839;28;20455;-68
2022/03/26 15:01:47;;;;;;;5.17;4.60;;;14.10;99.90;;;;;;4961930;28;20569;-68
2022/03/26 15:04:36;;;;;;;5.80;5.13;;;13.90;99.90;;;;;;4963900;28;20534;-68
2022/03/26 15:07:24;;;;;;;5.67;5.17;;;13.90;99.90;;;;;;4963369;28;20463;-68
2022/03/26 15:10:14;;;;;;;5.60;5.10;;;14.00;99.90;;;;;;4955664;28;20465;-68
2022/03/26 15:13:02;;;;;;;6.07;5.43;;;14.00;99.90;;;;;;4964261;28;20985;-68
2022/03/26 15:15:52;;;;;;;6.93;6.23;;;14.00;99.90;;;;;;4958410;28;20482;-68
2022/03/26 15:18:40;;;;;;;5.60;5.10;;;14.00;99.90;;;;;;4962032;28;20626;-68
2022/03/26 15:21:29;;;;;;;19.43;17.83;;;14.00;99.90;;;;;;4954387;28;20458;-67
2022/03/26 15:24:17;;;;;;;6.10;5.50;;;14.00;99.90;;;;;;4958233;28;20464;-67
2022/03/26 15:27:07;;;;;;;6.03;4.93;;;13.90;99.90;;;;;;4954050;28;20530;-68
2022/03/26 15:29:55;;;;;;;6.83;5.20;;;13.70;99.90;;;;;;4955213;28;20935;-69
2022/03/26 15:32:45;;;;;;;5.53;5.03;;;13.60;99.90;;;;;;4957856;28;20622;-67
2022/03/26 15:35:33;;;;;;;7.80;5.63;;;13.50;99.90;;;;;;4956992;28;20517;-70
2022/03/26 15:38:21;;;;;;;5.27;4.73;;;13.30;99.90;;;;;;4953298;28;20625;-66
2022/03/26 15:41:09;;;;;;;11.30;10.10;;;13.20;99.90;;;;;;4949215;28;23918;-66
2022/03/26 15:43:58;;;;;;;5.83;5.23;;;13.20;99.90;;;;;;4957499;28;20540;-66
2022/03/26 15:46:46;;;;;;;7.17;5.23;;;13.20;99.90;;;;;;4963338;28;20466;-68
2022/03/26 15:49:36;;;;;;;4.77;4.37;;;13.10;99.90;;;;;;4965009;28;20681;-65
2022/03/26 15:52:25;;;;;;;7.63;6.87;;;13.10;99.90;;;;;;4955275;28;20606;-65
2022/03/26 15:55:14;;;;;;;5.83;5.33;;;13.10;99.90;;;;;;4957173;28;20494;-66
2022/03/26 15:58:02;;;;;;;6.00;4.80;;;13.10;99.90;;;;;;4949658;28;20565;-68
2022/03/26 16:00:50;;;;;;;5.60;5.10;;;13.00;99.90;;;;;;4952471;28;20486;-68
2022/03/26 16:03:39;;;;;;;16.40;14.80;;;12.90;99.90;;;;;;4937768;28;20496;-68
2022/03/26 16:06:29;;;;;;;6.00;5.40;;;12.90;99.90;;;;;;4946261;28;20500;-68
2022/03/26 16:08:57;;;;;;;7.00;6.50;;;12.70;99.90;;;;;;4948117;28;20486;-68
2022/03/26 16:11:25;;;;;;;11.90;10.90;;;12.60;99.90;;;;;;4952191;28;20559;-68
2022/03/26 16:13:54;;;;;;;12.17;11.17;;;12.50;99.90;;;;;;4939810;28;20493;-69
2022/03/26 16:16:42;;;;;;;7.47;6.87;;;12.40;99.90;;;;;;4954108;28;20496;-68
2022/03/26 16:19:30;;;;;;;5.97;5.47;;;12.40;99.90;;;;;;4944883;28;20482;-68
2022/03/26 16:22:20;;;;;;;6.87;6.17;;;12.30;99.90;;;;;;4951570;28;20470;-67
2022/03/26 16:25:10;;;;;;;8.97;5.80;;;12.10;99.90;;;;;;4939944;28;20474;-69
2022/03/26 16:28:00;;;;;;;5.27;4.77;;;11.80;99.90;;;;;;4949498;28;20534;-69
2022/03/26 16:30:48;;;;;;;5.57;4.73;;;11.90;99.90;;;;;;4945599;28;20477;-71
2022/03/26 16:33:36;;;;;;;6.23;5.10;;;11.90;99.90;;;;;;4940936;28;20924;-68
2022/03/26 16:36:25;;;;;;;5.43;4.93;;;11.90;99.90;;;;;;4948355;28;20490;-68
2022/03/26 16:39:14;;;;;;;5.70;4.27;;;11.80;99.90;;;;;;4957703;23;20498;-68
2022/03/26 16:42:04;;;;;;;5.47;4.73;;;11.80;99.90;;;;;;4935575;28;20471;-68
2022/03/26 16:44:52;;;;;;;5.87;4.70;;;11.80;99.90;;;;;;4936281;28;20670;-68
2022/03/26 16:47:40;;;;;;;6.20;4.87;;;11.70;99.90;;;;;;4937415;28;20554;-68
2022/03/26 16:50:30;;;;;;;5.47;4.50;;;11.50;99.90;;;;;;4933153;28;20471;-68
2022/03/26 16:53:18;;;;;;;5.00;4.50;;;11.40;99.90;;;;;;4940107;29;20514;-68
2022/03/26 16:56:08;;;;;;;6.80;5.30;;;11.40;99.90;;;;;;4938357;28;20498;-68
2022/03/26 16:58:56;;;;;;;5.60;5.10;;;11.30;99.90;;;;;;4939455;28;20847;-68
2022/03/26 17:01:45;;;;;;;7.13;5.23;;;11.30;99.90;;;;;;4932290;28;20523;-68
2022/03/26 17:04:35;;;;;;;7.00;4.77;;;11.20;99.90;;;;;;4941095;28;20479;-68
2022/03/26 17:07:24;;;;;;;5.07;4.57;;;11.00;99.90;;;;;;4930881;28;21070;-68
2022/03/26 17:10:12;;;;;;;4.90;4.50;;;11.00;99.90;;;;;;4926734;28;20486;-68
2022/03/26 17:13:01;;;;;;;5.23;4.70;;;10.90;99.90;;;;;;4932170;28;20477;-67
2022/03/26 17:15:50;;;;;;;6.00;5.27;;;10.90;99.90;;;;;;4934985;28;20602;-68
2022/03/26 17:18:39;;;;;;;7.13;5.50;;;10.90;99.90;;;;;;4944085;28;20561;-67
2022/03/26 17:21:27;;;;;;;6.43;4.93;;;10.80;99.90;;;;;;4939076;28;20553;-67
2022/03/26 17:24:16;;;;;;;7.17;6.47;;;10.80;99.90;;;;;;4937290;28;20904;-68
2022/03/26 17:27:04;;;;;;;7.13;6.43;;;10.70;99.90;;;;;;4932793;28;20478;-68
2022/03/26 17:29:54;;;;;;;6.33;5.60;;;10.70;99.90;;;;;;4959069;28;20484;-68
2022/03/26 17:32:45;;;;;;;8.20;5.63;;;10.60;99.90;;;;;;4954659;28;20463;-68
2022/03/26 17:35:34;;;;;;;7.83;5.30;;;10.50;99.90;;;;;;4946421;28;20577;-68
2022/03/26 17:38:24;;;;;;;5.80;5.10;;;10.40;99.90;;;;;;4942104;28;20938;-67
2022/03/26 17:41:13;;;;;;;7.73;6.20;;;10.30;99.90;;;;;;4945043;29;20463;-67
2022/03/26 17:44:01;;;;;;;9.83;6.50;;;10.10;99.90;;;;;;4939904;28;20507;-68
2022/03/26 17:46:50;;;;;;;9.23;6.73;;;10.10;99.90;;;;;;4944251;28;20455;-68
2022/03/26 17:49:39;;;;;;;7.60;5.57;;;10.00;99.90;;;;;;4939417;28;20499;-68
2022/03/26 17:52:27;;;;;;;7.13;5.33;;;9.90;99.90;;;;;;4941652;28;20494;-67
2022/03/26 17:55:18;;;;;;;5.47;4.97;;;9.90;99.90;;;;;;4943268;28;20475;-68
2022/03/26 17:58:06;;;;;;;8.27;5.77;;;9.80;99.90;;;;;;4943192;28;20563;-68
2022/03/26 18:01:07;;;;;;;6.00;4.80;;;9.80;99.90;;;;;;4933731;28;22719;-68
2022/03/26 18:03:56;;;;;;;6.47;5.10;;;9.80;99.90;;;;;;4939171;28;20451;-68
2022/03/26 18:06:45;;;;;;;6.40;5.10;;;9.80;99.90;;;;;;4938435;28;20467;-68
2022/03/26 18:09:33;;;;;;;8.20;4.80;;;9.60;99.90;;;;;;4943333;28;20479;-68
2022/03/26 18:12:22;;;;;;;7.07;5.17;;;9.40;99.90;;;;;;4941576;28;20500;-68
2022/03/26 18:15:10;;;;;;;6.23;5.10;;;9.40;99.90;;;;;;4946702;29;20596;-67
2022/03/26 18:17:58;;;;;;;8.13;5.20;;;9.40;99.90;;;;;;4943706;29;20594;-68
2022/03/26 18:20:49;;;;;;;5.57;4.97;;;9.30;99.90;;;;;;4938022;29;20672;-68
2022/03/26 18:23:37;;;;;;;5.23;4.70;;;9.30;99.90;;;;;;4942155;28;20459;-68
2022/03/26 18:26:26;;;;;;;7.03;5.00;;;9.30;99.90;;;;;;4938785;28;20494;-68
2022/03/26 18:29:15;;;;;;;7.80;5.37;;;9.20;99.90;;;;;;4937743;28;20605;-68
2022/03/26 18:32:03;;;;;;;5.57;4.90;;;9.20;99.90;;;;;;4940962;28;20462;-67
2022/03/26 18:34:52;;;;;;;5.97;5.33;;;9.20;99.90;;;;;;4941242;28;20486;-67
2022/03/26 18:37:46;;;;;;;6.33;5.30;;;9.30;99.90;;;;;;4934630;28;21057;-67
2022/03/26 18:40:36;;;;;;;6.00;4.50;;;9.20;99.90;;;;;;4936421;28;20495;-67
2022/03/26 18:43:25;;;;;;;6.47;4.90;;;9.20;99.90;;;;;;4923082;28;20948;-67
2022/03/26 18:46:13;;;;;;;5.23;4.70;;;9.10;99.90;;;;;;4935301;28;20451;-67
2022/03/26 18:49:01;;;;;;;5.30;4.80;;;9.10;99.90;;;;;;4929039;28;20487;-68
2022/03/26 18:51:53;;;;;;;8.20;5.00;;;9.10;99.90;;;;;;4937919;28;22479;-67
2022/03/26 18:54:51;;;;;;;6.93;5.33;;;9.10;99.90;;;;;;4936244;28;20962;-67
2022/03/26 18:57:39;;;;;;;7.17;4.53;;;9.20;99.90;;;;;;4941590;28;20534;-68
2022/03/26 19:00:34;;;;;;;9.17;5.50;;;9.10;99.90;;;;;;4931483;28;20931;-68
2022/03/26 19:03:22;;;;;;;6.90;4.23;;;9.00;99.90;;;;;;4933899;28;20462;-68